EKCH/CPH METAR and TAF weather

Enter ICAO airport designator
Station Type Date Time Source
EKCH METAR 2019/07/17 12:20 UTC NOAA

EKCH 171220Z AUTO 01011KT 9999 FEW044/// 21/11 Q1014 NOSIG


Station Type Date Time Source
EKCH Decoded METAR 2019/07/17 12:20 UTC NOAA

Koebenhavn / Kastrup, Denmark (EKCH) 55-37N 012-39E 5M
Jul 17, 2019 - 08:20 AM EDT / 2019.07.17 1220 UTC
Wind: from the N (010 degrees) at 13 MPH (11 KT):0
Visibility: greater than 7 mile(s):0
Sky conditions: mostly clear
Temperature: 69 F (21 C)
Dew Point: 51 F (11 C)
Relative Humidity: 52%
Pressure (altimeter): 29.94 in. Hg (1014 hPa)
ob: EKCH 171220Z AUTO 01011KT 9999 FEW044/// 21/11 Q1014 NOSIG
cycle: 12

Station Type Date Time Source
EKCH TAF 2019/07/17 12:31 UTC NOAA

TAF EKCH 171112Z 1712/1812 01008KT 9999 FEW030
TEMPO 1712/1716 FEW030TCU

Example: see airport list